createdAt,value
2022-10-18T00:04:49.080Z,24.10
2022-10-18T00:09:50.568Z,24.98
2022-10-18T00:14:52.101Z,22.95
2022-10-18T00:19:53.567Z,29.48
2022-10-18T00:24:55.022Z,23.88
2022-10-18T00:29:56.513Z,24.40
2022-10-18T00:34:58.022Z,22.98
2022-10-18T00:39:59.535Z,24.65
2022-10-18T00:45:23.015Z,22.58
2022-10-18T00:50:26.142Z,22.85
2022-10-18T00:55:29.021Z,24.27
2022-10-18T01:00:30.962Z,26.20
2022-10-18T01:05:33.178Z,24.80
2022-10-18T01:10:45.616Z,17.90
2022-10-18T01:16:13.324Z,25.02
2022-10-18T01:21:26.956Z,28.33
2022-10-18T01:26:43.480Z,19.17
2022-10-18T01:31:55.308Z,22.70
2022-10-18T01:37:01.902Z,20.88
2022-10-18T01:42:08.843Z,24.23
2022-10-18T01:47:13.259Z,29.80
2022-10-18T01:52:16.285Z,29.23
2022-10-18T01:57:31.474Z,38.78
2022-10-18T02:02:41.917Z,70.75
2022-10-18T02:07:55.433Z,66.93
2022-10-18T02:13:07.898Z,92.45
2022-10-18T02:18:15.865Z,88.15
2022-10-18T02:23:22.832Z,64.38
2022-10-18T02:33:42.988Z,84.10
2022-10-18T02:38:46.477Z,53.20
2022-10-18T02:43:47.913Z,230.68
2022-10-18T02:48:49.804Z,170.77
2022-10-18T02:53:51.283Z,145.50
2022-10-18T02:58:52.787Z,90.90
2022-10-18T03:03:54.261Z,87.55
2022-10-18T03:08:55.843Z,47.63
2022-10-18T03:13:57.310Z,73.40
2022-10-18T03:18:58.759Z,102.88
2022-10-18T03:24:00.208Z,98.85
2022-10-18T03:29:01.754Z,164.15
2022-10-18T03:34:03.434Z,194.05
2022-10-18T03:39:04.933Z,120.60
2022-10-18T03:44:06.427Z,69.70
2022-10-18T03:49:07.957Z,30.40
2022-10-18T03:54:09.449Z,154.32
2022-10-18T03:59:10.935Z,179.90
2022-10-18T04:04:12.403Z,230.25
2022-10-18T04:09:13.881Z,268.52
2022-10-18T04:14:15.351Z,202.93
2022-10-18T04:19:17.073Z,418.45
2022-10-18T04:24:18.564Z,200.93
2022-10-18T04:29:20.038Z,214.43
2022-10-18T04:34:21.656Z,151.73
2022-10-18T04:39:23.119Z,126.43
2022-10-18T04:44:24.585Z,90.50
2022-10-18T04:49:26.061Z,192.65
2022-10-18T04:54:28.634Z,138.55
2022-10-18T04:59:30.209Z,107.22
2022-10-18T05:04:31.788Z,47.88
2022-10-18T05:09:33.368Z,60.65
2022-10-18T05:14:34.828Z,14.55
2022-10-18T05:19:36.306Z,20.13
2022-10-18T05:24:37.770Z,13.27
2022-10-18T05:29:39.320Z,7.03
2022-10-18T05:34:40.818Z,6.32
2022-10-18T05:39:42.306Z,7.50
2022-10-18T05:44:43.752Z,6.13
2022-10-18T05:49:45.246Z,5.55
2022-10-18T05:54:46.697Z,10.43
2022-10-18T05:59:48.164Z,10.63
2022-10-18T06:04:49.650Z,8.07
2022-10-18T06:09:51.092Z,13.40
2022-10-18T06:14:52.533Z,9.90
2022-10-18T06:19:53.975Z,11.68
2022-10-18T06:24:57.213Z,14.05
2022-10-18T06:29:58.886Z,9.88
2022-10-18T06:35:00.353Z,11.77
2022-10-18T06:40:01.887Z,9.77
2022-10-18T06:45:03.522Z,9.38
2022-10-18T06:50:05.215Z,19.67
2022-10-18T06:55:09.195Z,17.90
2022-10-18T07:00:11.390Z,20.00
2022-10-18T07:05:12.922Z,15.00
2022-10-18T07:10:14.368Z,18.88
2022-10-18T07:15:17.806Z,26.17
2022-10-18T07:20:19.279Z,32.17
2022-10-18T07:25:20.741Z,28.98
2022-10-18T07:30:22.300Z,27.38
2022-10-18T07:35:23.794Z,34.05
2022-10-18T07:40:25.320Z,17.45
2022-10-18T07:45:26.829Z,9.25
2022-10-18T07:50:28.321Z,11.82
2022-10-18T07:55:30.041Z,14.25
2022-10-18T08:00:31.588Z,20.42
2022-10-18T08:10:39.762Z,20.90
2022-10-18T08:15:41.644Z,21.27
2022-10-18T08:20:45.123Z,16.92
2022-10-18T08:25:46.608Z,22.00
2022-10-18T08:30:48.096Z,19.17
2022-10-18T08:35:57.504Z,15.02
2022-10-18T08:41:03.650Z,20.35
2022-10-18T08:46:05.280Z,17.23
2022-10-18T08:51:18.574Z,19.00
2022-10-18T08:56:24.130Z,20.90
2022-10-18T09:01:45.422Z,13.63
2022-10-18T09:07:14.278Z,15.68
2022-10-18T09:12:21.806Z,16.55
2022-10-18T09:17:56.569Z,11.32
2022-10-18T09:23:23.052Z,13.88
2022-10-18T09:28:45.407Z,19.08
2022-10-18T09:33:53.821Z,15.73
2022-10-18T09:39:00.510Z,19.52
2022-10-18T09:44:15.701Z,17.98
2022-10-18T09:49:22.145Z,13.05
2022-10-18T09:54:34.911Z,15.97
2022-10-18T09:59:45.784Z,15.15
2022-10-18T10:04:48.565Z,15.35
2022-10-18T10:10:25.005Z,15.45
2022-10-18T10:15:31.202Z,13.52
2022-10-18T10:20:45.126Z,17.10
2022-10-18T10:25:52.345Z,12.48
2022-10-18T10:36:00.113Z,11.85
2022-10-18T10:41:01.661Z,11.63
2022-10-18T10:46:06.120Z,13.65
2022-10-18T10:51:10.199Z,12.07
2022-10-18T10:56:21.170Z,11.80
2022-10-18T11:01:31.794Z,11.27
2022-10-18T11:06:46.218Z,12.50
2022-10-18T11:12:10.198Z,10.10
2022-10-18T11:17:36.155Z,11.63
2022-10-18T11:22:57.022Z,16.05
2022-10-18T11:28:10.442Z,11.15
2022-10-18T11:33:50.054Z,11.18
2022-10-18T11:38:51.320Z,12.23
2022-10-18T11:44:03.288Z,14.10
2022-10-18T11:49:16.579Z,13.85
2022-10-18T11:54:56.885Z,14.48
2022-10-18T12:00:16.844Z,9.23
2022-10-18T12:05:23.678Z,10.43
2022-10-18T12:15:51.476Z,12.75
2022-10-18T12:20:55.345Z,13.60
2022-10-18T12:26:02.971Z,10.90
2022-10-18T12:31:20.754Z,11.82
2022-10-18T12:36:22.407Z,11.57
2022-10-18T12:41:28.311Z,10.73
2022-10-18T12:46:45.011Z,11.80
2022-10-18T12:51:55.011Z,10.40
2022-10-18T12:56:58.444Z,19.25
2022-10-18T13:02:01.250Z,8.95
2022-10-18T13:07:05.713Z,12.13
2022-10-18T13:12:10.158Z,20.08
2022-10-18T13:17:17.570Z,12.85
2022-10-18T13:22:44.185Z,13.60
2022-10-18T13:28:19.590Z,15.65
2022-10-18T13:33:39.293Z,13.77
2022-10-18T13:38:44.802Z,14.70
2022-10-18T13:43:53.890Z,10.43
2022-10-18T13:49:17.734Z,14.05
2022-10-18T13:54:44.092Z,10.48
2022-10-18T14:00:11.936Z,10.07
2022-10-18T14:10:57.418Z,14.05
2022-10-18T14:16:27.925Z,11.75
2022-10-18T14:21:36.219Z,17.07
2022-10-18T14:31:54.232Z,13.07
2022-10-18T14:36:55.740Z,11.23
2022-10-18T14:41:58.064Z,14.07
2022-10-18T14:47:20.425Z,12.32
2022-10-18T14:52:27.913Z,13.88
2022-10-18T14:57:34.976Z,11.73
2022-10-18T15:02:38.539Z,15.75
2022-10-18T15:07:40.277Z,11.55
2022-10-18T15:13:08.337Z,12.43
2022-10-18T15:18:06.885Z,12.70
2022-10-18T15:23:37.489Z,13.18
2022-10-18T15:28:49.955Z,11.85
2022-10-18T15:33:52.765Z,8.93
2022-10-18T15:39:04.019Z,14.68
2022-10-18T15:44:31.814Z,16.73
2022-10-18T15:49:45.310Z,13.02
2022-10-18T16:00:01.877Z,17.63
2022-10-18T16:05:03.641Z,15.30
2022-10-18T16:10:13.235Z,15.57
2022-10-18T16:15:14.759Z,13.18
2022-10-18T16:20:22.173Z,10.98
2022-10-18T16:25:23.678Z,19.85
2022-10-18T16:30:31.184Z,12.77
2022-10-18T16:40:37.695Z,14.40
2022-10-18T16:45:42.629Z,14.25
2022-10-18T16:50:44.275Z,13.48
2022-10-18T16:55:45.778Z,18.67
2022-10-18T17:00:47.312Z,17.75
2022-10-18T17:05:48.802Z,16.52
2022-10-18T17:10:55.288Z,18.15
2022-10-18T17:15:56.786Z,16.08
2022-10-18T17:21:01.739Z,12.77
2022-10-18T17:26:26.368Z,17.00
2022-10-18T17:31:24.715Z,15.77
2022-10-18T17:36:26.167Z,14.75
2022-10-18T17:41:27.744Z,18.67
2022-10-18T17:46:29.230Z,13.57
2022-10-18T17:51:30.725Z,20.35
2022-10-18T17:56:33.448Z,14.70
2022-10-18T18:01:35.254Z,13.80
2022-10-18T18:06:39.050Z,14.70
2022-10-18T18:11:43.481Z,18.15
2022-10-18T18:16:46.715Z,12.73
2022-10-18T18:21:48.381Z,12.93
2022-10-18T18:26:50.101Z,11.30
2022-10-18T18:31:52.475Z,10.00
2022-10-18T18:36:53.983Z,11.65
2022-10-18T18:41:56.016Z,12.05
2022-10-18T18:46:58.426Z,9.68
2022-10-18T18:51:59.938Z,10.25
2022-10-18T18:57:05.176Z,8.77
2022-10-18T19:02:06.687Z,12.75
2022-10-18T19:07:08.220Z,10.02
2022-10-18T19:12:10.050Z,9.10
2022-10-18T19:17:11.562Z,10.43
2022-10-18T19:22:13.214Z,11.73
2022-10-18T19:27:14.670Z,14.68
2022-10-18T19:32:18.626Z,13.52
2022-10-18T19:37:20.155Z,11.93
2022-10-18T19:42:31.503Z,12.52
2022-10-18T19:47:33.291Z,10.60
2022-10-18T19:52:35.013Z,13.43
2022-10-18T19:57:36.847Z,8.32
2022-10-18T20:02:38.341Z,12.77
2022-10-18T20:07:41.253Z,9.10
2022-10-18T20:12:42.698Z,8.73
2022-10-18T20:17:44.211Z,14.38
2022-10-18T20:22:45.738Z,10.48
2022-10-18T20:27:47.232Z,10.52
2022-10-18T20:32:51.565Z,10.20
2022-10-18T20:37:53.013Z,17.08
2022-10-18T20:42:54.483Z,10.60
2022-10-18T20:47:55.976Z,9.15
2022-10-18T20:52:57.454Z,8.15
2022-10-18T20:57:58.936Z,10.50
2022-10-18T21:03:00.488Z,9.82
2022-10-18T21:08:02.033Z,9.90
2022-10-18T21:13:03.496Z,8.65
2022-10-18T21:18:04.935Z,11.18
2022-10-18T21:23:06.397Z,12.45
2022-10-18T21:28:07.890Z,6.25
2022-10-18T21:33:09.362Z,7.38
2022-10-18T21:38:10.859Z,12.80
2022-10-18T21:43:12.331Z,5.60
2022-10-18T21:48:13.810Z,7.40
2022-10-18T21:53:16.572Z,9.68
2022-10-18T21:58:18.133Z,9.63
2022-10-18T22:03:23.195Z,7.80
2022-10-18T22:08:24.687Z,9.65
2022-10-18T22:13:26.511Z,6.75
2022-10-18T22:18:28.212Z,8.88
2022-10-18T22:23:34.741Z,8.80
2022-10-18T22:28:36.840Z,8.52
2022-10-18T22:33:38.314Z,7.43
2022-10-18T22:38:40.042Z,12.48
2022-10-18T22:43:41.674Z,7.97
2022-10-18T22:48:43.228Z,4.85
2022-10-18T22:53:45.019Z,12.55
2022-10-18T22:58:48.083Z,13.48
2022-10-18T23:03:57.395Z,7.05
2022-10-18T23:09:01.314Z,9.88
2022-10-18T23:14:04.614Z,8.85
2022-10-18T23:19:06.355Z,8.23
2022-10-18T23:24:07.823Z,7.13
2022-10-18T23:29:09.427Z,9.93
2022-10-18T23:34:10.912Z,12.02
2022-10-18T23:39:12.387Z,5.28
2022-10-18T23:44:14.649Z,8.93
2022-10-18T23:49:16.162Z,8.60
2022-10-18T23:54:17.665Z,5.88
2022-10-18T23:59:19.150Z,11.48
